createdAt,value
2023-03-12T00:01:48.065Z,22.50
2023-03-12T00:04:18.960Z,22.60
2023-03-12T00:06:50.038Z,20.00
2023-03-12T00:09:20.996Z,19.80
2023-03-12T00:11:54.343Z,20.10
2023-03-12T00:14:25.063Z,19.00
2023-03-12T00:16:58.834Z,19.00
2023-03-12T00:19:29.616Z,19.40
2023-03-12T00:22:00.571Z,19.90
2023-03-12T00:24:31.242Z,18.50
2023-03-12T00:27:04.580Z,19.50
2023-03-12T00:29:35.337Z,18.10
2023-03-12T00:32:06.143Z,17.90
2023-03-12T00:34:36.879Z,18.10
2023-03-12T00:37:08.058Z,17.10
2023-03-12T00:39:39.092Z,18.10
2023-03-12T00:42:12.516Z,17.40
2023-03-12T00:44:44.243Z,17.50
2023-03-12T00:47:15.761Z,18.90
2023-03-12T00:49:46.502Z,16.90
2023-03-12T00:52:17.952Z,18.20
2023-03-12T00:54:48.667Z,17.20
2023-03-12T00:57:22.159Z,15.60
2023-03-12T00:59:52.898Z,16.00
2023-03-12T01:02:24.035Z,15.50
2023-03-12T01:04:54.862Z,15.30
2023-03-12T01:07:28.698Z,15.00
2023-03-12T01:09:59.557Z,14.60
2023-03-12T01:12:33.008Z,14.80
2023-03-12T01:15:04.215Z,13.60
2023-03-12T01:17:35.003Z,13.50
2023-03-12T01:20:06.627Z,14.50
2023-03-12T01:22:37.807Z,13.50
2023-03-12T01:25:09.547Z,13.10
2023-03-12T01:27:42.952Z,12.00
2023-03-12T01:30:15.184Z,12.50
2023-03-12T01:32:46.300Z,13.60
2023-03-12T01:35:17.184Z,12.50
2023-03-12T01:37:47.978Z,11.70
2023-03-12T01:40:19.780Z,12.60
2023-03-12T01:42:59.925Z,10.80
2023-03-12T01:46:00.844Z,11.80
2023-03-12T01:48:36.188Z,12.10
2023-03-12T01:51:08.734Z,10.70
2023-03-12T01:53:40.750Z,11.10
2023-03-12T01:56:12.587Z,10.60
2023-03-12T01:58:50.690Z,10.70
2023-03-12T02:01:23.315Z,11.00
2023-03-12T02:03:56.304Z,10.70
2023-03-12T02:06:33.320Z,10.50
2023-03-12T02:09:05.826Z,9.50
2023-03-12T02:11:36.782Z,9.70
2023-03-12T02:14:10.234Z,10.30
2023-03-12T02:16:41.216Z,9.60
2023-03-12T02:19:22.252Z,10.80
2023-03-12T02:21:53.477Z,8.70
2023-03-12T02:24:31.062Z,10.70
2023-03-12T02:27:05.295Z,8.90
2023-03-12T02:29:38.612Z,8.30
2023-03-12T02:32:12.630Z,8.20
2023-03-12T02:34:43.729Z,9.20
2023-03-12T02:37:14.516Z,9.20
2023-03-12T02:39:47.064Z,8.80
2023-03-12T02:42:20.629Z,8.20
2023-03-12T02:44:51.450Z,8.10
2023-03-12T02:48:30.334Z,8.50
2023-03-12T02:52:27.077Z,8.90
2023-03-12T02:54:58.974Z,8.60
2023-03-12T02:57:32.378Z,8.70
2023-03-12T03:00:04.530Z,8.40
2023-03-12T03:02:35.528Z,8.00
2023-03-12T03:05:06.407Z,7.90
2023-03-12T03:07:38.398Z,9.00
2023-03-12T03:10:15.563Z,6.90
2023-03-12T03:12:49.055Z,8.10
2023-03-12T03:15:20.341Z,7.80
2023-03-12T03:17:55.284Z,8.20
2023-03-12T03:20:26.859Z,9.20
2023-03-12T03:22:57.826Z,9.20
2023-03-12T03:25:28.967Z,8.20
2023-03-12T03:28:02.347Z,10.00
2023-03-12T03:30:33.276Z,9.40
2023-03-12T03:33:04.611Z,10.00
2023-03-12T03:35:37.062Z,10.80
2023-03-12T03:38:07.813Z,9.70
2023-03-12T03:40:38.577Z,9.40
2023-03-12T03:43:12.910Z,9.30
2023-03-12T03:45:44.826Z,10.60
2023-03-12T03:48:16.038Z,9.10
2023-03-12T03:50:46.921Z,8.30
2023-03-12T03:53:19.399Z,8.70
2023-03-12T03:55:50.868Z,8.10
2023-03-12T03:58:26.269Z,8.30
2023-03-12T04:00:57.374Z,8.20
2023-03-12T04:03:33.401Z,8.00
2023-03-12T04:06:06.385Z,8.90
2023-03-12T04:08:39.609Z,8.20
2023-03-12T04:11:11.497Z,9.00
2023-03-12T04:13:45.568Z,8.20
2023-03-12T04:16:22.473Z,8.00
2023-03-12T04:18:56.824Z,7.50
2023-03-12T04:21:27.629Z,7.60
2023-03-12T04:24:00.554Z,7.10
2023-03-12T04:26:31.303Z,11.20
2023-03-12T04:29:08.077Z,8.20
2023-03-12T04:31:38.904Z,8.20
2023-03-12T04:34:12.539Z,7.70
2023-03-12T04:36:45.197Z,7.90
2023-03-12T04:39:16.266Z,7.10
2023-03-12T04:41:47.124Z,8.30
2023-03-12T04:44:20.397Z,7.10
2023-03-12T04:46:51.261Z,10.50
2023-03-12T04:49:22.369Z,7.90
2023-03-12T04:51:53.092Z,7.50
2023-03-12T04:54:24.001Z,8.20
2023-03-12T04:56:54.884Z,7.60
2023-03-12T04:59:28.356Z,8.90
2023-03-12T05:02:00.509Z,8.00
2023-03-12T05:04:33.564Z,8.80
2023-03-12T05:07:04.884Z,8.00
2023-03-12T05:09:35.613Z,6.90
2023-03-12T05:12:07.085Z,9.10
2023-03-12T05:14:45.767Z,8.10
2023-03-12T05:17:16.924Z,7.80
2023-03-12T05:19:48.835Z,6.70
2023-03-12T05:22:20.280Z,7.80
2023-03-12T05:24:51.051Z,7.60
2023-03-12T05:27:22.159Z,8.00
2023-03-12T05:29:55.634Z,7.00
2023-03-12T05:32:26.503Z,8.60
2023-03-12T05:34:57.207Z,6.90
2023-03-12T05:37:28.284Z,7.80
2023-03-12T05:40:01.177Z,6.40
2023-03-12T05:42:32.060Z,6.70
2023-03-12T05:45:05.886Z,8.90
2023-03-12T05:47:37.794Z,7.80
2023-03-12T05:50:10.801Z,7.40
2023-03-12T05:52:41.866Z,7.90
2023-03-12T05:55:13.099Z,6.70
2023-03-12T05:58:42.198Z,7.70
2023-03-12T06:01:43.484Z,7.10
2023-03-12T06:04:14.562Z,7.90
2023-03-12T06:06:45.652Z,7.00
2023-03-12T06:09:16.701Z,7.10
2023-03-12T06:11:47.618Z,7.80
2023-03-12T06:14:18.308Z,7.30
2023-03-12T06:16:51.831Z,6.70
2023-03-12T06:19:22.637Z,6.70
2023-03-12T06:21:53.355Z,6.80
2023-03-12T06:24:24.083Z,7.10
2023-03-12T06:26:54.842Z,8.00
2023-03-12T06:29:25.565Z,8.20
2023-03-12T06:32:00.272Z,9.80
2023-03-12T06:34:31.014Z,8.80
2023-03-12T06:37:02.241Z,10.10
2023-03-12T06:39:32.997Z,9.60
2023-03-12T06:42:03.797Z,8.90
2023-03-12T06:44:35.133Z,9.90
2023-03-12T06:47:08.861Z,11.10
2023-03-12T06:49:39.821Z,11.20
2023-03-12T06:52:10.639Z,11.50
2023-03-12T06:54:41.336Z,11.40
2023-03-12T06:57:12.221Z,12.50
2023-03-12T06:59:42.959Z,13.70
2023-03-12T07:02:16.386Z,12.10
2023-03-12T07:04:47.202Z,11.50
2023-03-12T07:07:18.295Z,12.40
2023-03-12T07:09:49.039Z,12.90
2023-03-12T07:12:19.748Z,13.20
2023-03-12T07:14:50.416Z,13.10
2023-03-12T07:17:27.575Z,14.70
2023-03-12T07:19:58.328Z,16.10
2023-03-12T07:22:29.020Z,16.40
2023-03-12T07:25:00.057Z,16.50
2023-03-12T07:27:30.926Z,16.90
2023-03-12T07:30:01.692Z,17.40
2023-03-12T07:32:36.788Z,17.60
2023-03-12T07:35:08.345Z,18.90
2023-03-12T07:37:40.272Z,18.50
2023-03-12T07:40:12.696Z,20.30
2023-03-12T07:42:45.523Z,20.30
2023-03-12T07:45:16.518Z,20.40
2023-03-12T07:47:50.263Z,21.50
2023-03-12T07:50:22.114Z,22.10
2023-03-12T07:52:53.214Z,22.60
2023-03-12T07:55:24.259Z,24.60
2023-03-12T07:57:59.413Z,26.00
2023-03-12T08:00:32.679Z,27.60
2023-03-12T08:03:09.394Z,28.80
2023-03-12T08:05:40.286Z,30.20
2023-03-12T08:08:11.522Z,32.60
2023-03-12T08:10:42.312Z,34.20
2023-03-12T08:13:15.870Z,35.80
2023-03-12T08:15:46.942Z,36.90
2023-03-12T08:18:20.365Z,37.70
2023-03-12T08:20:56.288Z,38.90
2023-03-12T08:23:30.017Z,42.00
2023-03-12T08:26:06.920Z,43.90
2023-03-12T08:28:43.770Z,47.40
2023-03-12T08:31:17.714Z,48.90
2023-03-12T08:33:53.987Z,50.30
2023-03-12T08:36:25.335Z,50.20
2023-03-12T08:38:56.186Z,52.40
2023-03-12T08:41:26.920Z,53.10
2023-03-12T08:43:57.929Z,53.50
2023-03-12T08:46:29.594Z,56.40
2023-03-12T08:49:03.043Z,54.60
2023-03-12T08:51:33.790Z,55.00
2023-03-12T08:54:05.642Z,56.80
2023-03-12T08:56:37.165Z,56.60
2023-03-12T08:59:08.191Z,56.40
2023-03-12T09:01:44.044Z,55.70
2023-03-12T09:04:17.914Z,56.70
2023-03-12T09:06:58.927Z,54.40
2023-03-12T09:09:29.739Z,56.20
2023-03-12T09:12:00.726Z,55.20
2023-03-12T09:15:01.995Z,54.60
2023-03-12T09:17:22.388Z,55.00
2023-03-12T09:19:55.665Z,54.10
2023-03-12T09:22:26.718Z,55.60
2023-03-12T09:24:58.508Z,55.80
2023-03-12T09:27:32.204Z,55.70
2023-03-12T09:30:03.012Z,55.40
2023-03-12T09:32:37.159Z,56.50
2023-03-12T09:35:11.286Z,58.40
2023-03-12T09:37:51.691Z,59.10
2023-03-12T09:40:26.475Z,57.90
2023-03-12T09:43:02.157Z,56.60
2023-03-12T09:45:39.063Z,56.40
2023-03-12T09:48:19.793Z,55.60
2023-03-12T09:51:00.726Z,55.70
2023-03-12T09:53:41.209Z,56.80
2023-03-12T09:56:17.461Z,55.90
2023-03-12T09:58:54.772Z,56.50
2023-03-12T10:01:37.824Z,56.30
2023-03-12T10:04:25.855Z,57.70
2023-03-12T10:07:05.483Z,59.60
2023-03-12T10:10:05.622Z,60.90
2023-03-12T10:12:47.677Z,63.40
2023-03-12T10:15:31.003Z,66.50
2023-03-12T10:18:15.729Z,69.90
2023-03-12T10:21:15.027Z,77.80
2023-03-12T10:24:03.135Z,91.40
2023-03-12T10:27:55.326Z,99.90
2023-03-12T10:30:02.646Z,99.90
2023-03-12T10:32:41.917Z,99.90
2023-03-12T10:35:21.555Z,99.90
2023-03-12T10:37:58.821Z,99.90
2023-03-12T10:40:38.971Z,99.90
2023-03-12T10:43:12.550Z,99.90
2023-03-12T10:45:53.001Z,99.90
2023-03-12T10:48:25.859Z,99.90
2023-03-12T10:51:10.469Z,99.90
2023-03-12T10:53:44.694Z,99.90
2023-03-12T10:56:21.975Z,99.90
2023-03-12T10:58:54.843Z,99.90
2023-03-12T11:01:31.950Z,99.90
2023-03-12T11:04:17.633Z,99.90
2023-03-12T11:07:10.058Z,99.90
2023-03-12T11:09:41.152Z,99.90
2023-03-12T11:12:31.662Z,99.90
2023-03-12T11:15:02.392Z,99.90
2023-03-12T11:17:33.420Z,99.90
2023-03-12T11:20:27.489Z,99.90
2023-03-12T11:22:59.181Z,99.90
2023-03-12T11:25:31.836Z,99.90
2023-03-12T11:28:07.704Z,99.90
2023-03-12T11:30:43.082Z,99.90
2023-03-12T11:33:14.968Z,99.90
2023-03-12T11:35:55.701Z,99.90
2023-03-12T11:38:36.364Z,99.90
2023-03-12T11:41:23.845Z,99.90
2023-03-12T11:44:12.854Z,99.90
2023-03-12T11:46:53.910Z,99.90
2023-03-12T11:49:37.268Z,99.90
2023-03-12T11:52:16.885Z,99.90
2023-03-12T11:55:16.238Z,99.90
2023-03-12T11:58:14.982Z,99.90
2023-03-12T12:00:55.997Z,99.90
2023-03-12T12:03:59.666Z,99.90
2023-03-12T12:06:41.926Z,99.90
2023-03-12T12:09:23.236Z,99.90
2023-03-12T12:12:12.950Z,99.90
2023-03-12T12:14:56.760Z,99.90
2023-03-12T12:17:41.773Z,99.90
2023-03-12T12:20:26.034Z,99.90
2023-03-12T12:23:19.164Z,99.90
2023-03-12T12:26:11.658Z,99.90
2023-03-12T12:29:13.498Z,99.90
2023-03-12T12:31:50.764Z,99.90
2023-03-12T12:34:52.065Z,99.90
2023-03-12T12:37:34.974Z,99.90
2023-03-12T12:40:21.081Z,99.90
2023-03-12T12:43:00.098Z,99.90
2023-03-12T12:45:32.032Z,99.90
2023-03-12T12:48:09.189Z,99.90
2023-03-12T12:50:42.791Z,99.90
2023-03-12T12:53:23.053Z,99.90
2023-03-12T12:56:04.051Z,99.90
2023-03-12T12:59:05.303Z,99.90
2023-03-12T13:01:39.274Z,99.90
2023-03-12T13:04:15.577Z,99.90
2023-03-12T13:07:28.072Z,99.90
2023-03-12T13:10:09.417Z,99.90
2023-03-12T13:12:50.422Z,99.90
2023-03-12T13:15:40.200Z,99.90
2023-03-12T13:18:27.534Z,99.90
2023-03-12T13:21:16.923Z,99.90
2023-03-12T13:24:01.796Z,99.90
2023-03-12T13:26:50.147Z,99.90
2023-03-12T13:29:39.730Z,99.90
2023-03-12T13:32:33.276Z,99.90
2023-03-12T13:35:30.469Z,99.90
2023-03-12T13:38:07.734Z,99.90
2023-03-12T13:40:56.333Z,99.90
2023-03-12T13:43:52.986Z,99.90
2023-03-12T13:46:39.270Z,99.90
2023-03-12T13:49:21.472Z,99.90
2023-03-12T13:52:04.079Z,99.90
2023-03-12T13:54:41.659Z,99.90
2023-03-12T13:57:28.934Z,99.90
2023-03-12T14:00:00.817Z,99.90
2023-03-12T14:02:35.434Z,99.90
2023-03-12T14:05:09.527Z,99.90
2023-03-12T14:08:20.692Z,99.90
2023-03-12T14:11:05.604Z,99.90
2023-03-12T14:13:52.313Z,99.90
2023-03-12T14:16:29.134Z,99.90
2023-03-12T14:19:03.279Z,99.90
2023-03-12T14:21:41.323Z,99.90
2023-03-12T14:24:27.998Z,99.90
2023-03-12T14:27:03.983Z,99.90
2023-03-12T14:29:39.706Z,99.90
2023-03-12T14:32:18.943Z,99.90
2023-03-12T14:34:54.992Z,99.90
2023-03-12T14:37:31.292Z,99.90
2023-03-12T14:40:09.912Z,99.90
2023-03-12T14:42:40.590Z,99.90
2023-03-12T14:45:16.744Z,99.90
2023-03-12T14:47:51.887Z,99.90
2023-03-12T14:50:24.517Z,99.90
2023-03-12T14:52:55.767Z,99.90
2023-03-12T14:55:29.658Z,99.90
2023-03-12T14:58:07.791Z,99.90
2023-03-12T15:00:41.792Z,99.90
2023-03-12T15:03:17.801Z,99.90
2023-03-12T15:05:50.074Z,99.90
2023-03-12T15:08:23.666Z,99.90
2023-03-12T15:10:59.908Z,99.90
2023-03-12T15:13:30.945Z,99.90
2023-03-12T15:16:03.737Z,99.90
2023-03-12T15:18:35.931Z,99.90
2023-03-12T15:21:07.642Z,99.90
2023-03-12T15:23:40.769Z,99.90
2023-03-12T15:26:18.623Z,99.90
2023-03-12T15:28:58.771Z,99.90
2023-03-12T15:31:30.295Z,99.90
2023-03-12T15:34:06.215Z,99.90
2023-03-12T15:36:39.413Z,99.90
2023-03-12T15:39:26.566Z,99.90
2023-03-12T15:42:05.172Z,99.90
2023-03-12T15:44:47.581Z,99.90
2023-03-12T15:47:20.925Z,99.90
2023-03-12T15:49:54.582Z,99.90
2023-03-12T15:52:34.520Z,99.90
2023-03-12T15:55:09.879Z,99.90
2023-03-12T15:57:51.516Z,99.90
2023-03-12T16:00:26.552Z,99.90
2023-03-12T16:02:59.706Z,99.90
2023-03-12T16:05:34.177Z,99.90
2023-03-12T16:08:12.962Z,99.90
2023-03-12T16:10:43.998Z,99.90
2023-03-12T16:13:19.888Z,99.90
2023-03-12T16:15:50.933Z,99.90
2023-03-12T16:18:24.903Z,98.50
2023-03-12T16:20:59.270Z,96.80
2023-03-12T16:23:30.105Z,95.10
2023-03-12T16:26:01.654Z,93.20
2023-03-12T16:28:37.649Z,91.40
2023-03-12T16:31:14.121Z,90.20
2023-03-12T16:33:48.266Z,87.90
2023-03-12T16:36:20.540Z,84.50
2023-03-12T16:38:51.598Z,82.70
2023-03-12T16:41:22.993Z,81.30
2023-03-12T16:43:56.941Z,78.40
2023-03-12T16:46:33.992Z,76.00
2023-03-12T16:49:04.860Z,74.90
2023-03-12T16:51:35.629Z,72.80
2023-03-12T16:54:11.641Z,68.70
2023-03-12T16:56:47.921Z,66.60
2023-03-12T16:59:27.686Z,64.70
2023-03-12T17:02:02.050Z,61.90
2023-03-12T17:04:32.869Z,58.40
2023-03-12T17:07:03.617Z,56.10
2023-03-12T17:09:34.565Z,53.00
2023-03-12T17:12:05.545Z,51.00
2023-03-12T17:14:39.401Z,51.70
2023-03-12T17:17:11.204Z,50.40
2023-03-12T17:19:42.023Z,49.80
2023-03-12T17:22:12.926Z,48.50
2023-03-12T17:24:47.188Z,49.00
2023-03-12T17:27:17.913Z,49.60
2023-03-12T17:29:51.218Z,48.40
2023-03-12T17:32:22.100Z,47.60
2023-03-12T17:34:59.902Z,47.70
2023-03-12T17:37:33.191Z,46.60
2023-03-12T17:40:08.135Z,46.40
2023-03-12T17:42:38.940Z,43.20
2023-03-12T17:45:13.597Z,44.90
2023-03-12T17:47:44.364Z,43.20
2023-03-12T17:50:16.183Z,43.10
2023-03-12T17:52:47.028Z,43.00
2023-03-12T17:55:17.722Z,43.10
2023-03-12T17:57:48.447Z,43.20
2023-03-12T18:00:23.248Z,41.30
2023-03-12T18:02:55.980Z,41.40
2023-03-12T18:05:27.131Z,40.80
2023-03-12T18:07:57.831Z,41.40
2023-03-12T18:10:30.642Z,41.30
2023-03-12T18:13:01.432Z,41.10
2023-03-12T18:15:38.042Z,43.00
2023-03-12T18:18:08.879Z,42.20
2023-03-12T18:20:40.068Z,41.90
2023-03-12T18:23:10.799Z,41.40
2023-03-12T18:25:41.519Z,42.90
2023-03-12T18:28:14.617Z,41.40
2023-03-12T18:30:48.412Z,42.70
2023-03-12T18:33:19.741Z,40.30
2023-03-12T18:35:52.485Z,41.00
2023-03-12T18:38:24.760Z,42.20
2023-03-12T18:40:55.560Z,41.40
2023-03-12T18:43:26.870Z,40.20
2023-03-12T18:46:02.829Z,40.50
2023-03-12T18:48:33.703Z,40.50
2023-03-12T18:51:04.709Z,41.40
2023-03-12T18:53:35.823Z,40.80
2023-03-12T18:56:08.473Z,40.60
2023-03-12T18:58:39.211Z,42.10
2023-03-12T19:01:14.778Z,41.40
2023-03-12T19:03:45.716Z,41.60
2023-03-12T19:06:18.870Z,41.40
2023-03-12T19:08:49.776Z,42.90
2023-03-12T19:11:20.700Z,42.60
2023-03-12T19:13:53.186Z,41.80
2023-03-12T19:16:26.686Z,42.40
2023-03-12T19:18:57.414Z,42.20
2023-03-12T19:21:29.731Z,41.70
2023-03-12T19:24:00.749Z,42.70
2023-03-12T19:26:31.408Z,43.50
2023-03-12T19:29:02.118Z,43.00
2023-03-12T19:31:35.836Z,42.90
2023-03-12T19:34:06.563Z,43.00
2023-03-12T19:36:38.623Z,42.90
2023-03-12T19:39:20.434Z,43.00
2023-03-12T19:41:52.073Z,43.00
2023-03-12T19:44:22.835Z,44.00
2023-03-12T19:46:56.112Z,43.10
2023-03-12T19:49:27.063Z,43.00
2023-03-12T19:51:57.826Z,43.10
2023-03-12T19:54:28.700Z,43.60
2023-03-12T19:57:01.671Z,44.30
2023-03-12T19:59:32.665Z,44.10
2023-03-12T20:02:06.456Z,44.30
2023-03-12T20:04:37.384Z,43.10
2023-03-12T20:07:08.190Z,43.10
2023-03-12T20:09:41.144Z,43.10
2023-03-12T20:12:12.087Z,43.10
2023-03-12T20:14:43.115Z,43.10
2023-03-12T20:17:16.497Z,43.30
2023-03-12T20:19:47.419Z,43.10
2023-03-12T20:22:20.817Z,43.10
2023-03-12T20:24:51.662Z,43.20
2023-03-12T20:27:22.864Z,42.70
2023-03-12T20:29:53.680Z,43.00
2023-03-12T20:32:28.722Z,43.00
2023-03-12T20:34:59.574Z,41.80
2023-03-12T20:37:30.324Z,41.60
2023-03-12T20:40:01.124Z,41.80
2023-03-12T20:42:34.921Z,41.40
2023-03-12T20:45:08.824Z,41.30
2023-03-12T20:47:42.691Z,42.40
2023-03-12T20:50:14.191Z,41.40
2023-03-12T20:52:46.687Z,41.00
2023-03-12T20:55:17.658Z,41.10
2023-03-12T20:57:48.422Z,41.60
2023-03-12T21:00:21.517Z,41.90
2023-03-12T21:02:54.831Z,40.50
2023-03-12T21:05:25.992Z,40.40
2023-03-12T21:07:59.699Z,40.50
2023-03-12T21:10:31.694Z,40.40
2023-03-12T21:13:03.778Z,40.20
2023-03-12T21:15:34.487Z,39.50
2023-03-12T21:18:10.053Z,39.80
2023-03-12T21:20:43.814Z,39.20
2023-03-12T21:23:16.930Z,38.50
2023-03-12T21:25:47.667Z,38.20
2023-03-12T21:28:18.531Z,38.40
2023-03-12T21:30:49.283Z,37.20
2023-03-12T21:33:25.159Z,38.00
2023-03-12T21:35:56.160Z,38.00
2023-03-12T21:38:26.920Z,37.00
2023-03-12T21:40:59.294Z,37.40
2023-03-12T21:43:32.239Z,37.50
2023-03-12T21:46:06.593Z,37.80
2023-03-12T21:48:40.122Z,38.10
2023-03-12T21:51:13.188Z,37.40
2023-03-12T21:53:44.466Z,38.80
2023-03-12T21:56:17.413Z,37.80
2023-03-12T21:58:48.249Z,37.60
2023-03-12T22:01:23.655Z,38.40
2023-03-12T22:03:58.431Z,37.60
2023-03-12T22:06:29.399Z,38.40
2023-03-12T22:09:00.165Z,38.80
2023-03-12T22:11:31.072Z,38.30
2023-03-12T22:14:03.406Z,39.10
2023-03-12T22:16:34.289Z,38.10
2023-03-12T22:19:08.538Z,38.10
2023-03-12T22:21:39.325Z,37.80
2023-03-12T22:24:14.847Z,38.60
2023-03-12T22:26:45.648Z,37.70
2023-03-12T22:29:16.520Z,37.50
2023-03-12T22:31:47.393Z,38.90
2023-03-12T22:34:20.775Z,37.90
2023-03-12T22:36:51.921Z,38.10
2023-03-12T22:39:22.571Z,37.40
2023-03-12T22:41:56.195Z,37.70
2023-03-12T22:44:26.932Z,37.60
2023-03-12T22:46:59.636Z,37.30
2023-03-12T22:49:35.980Z,38.00
2023-03-12T22:52:10.012Z,37.70
2023-03-12T22:54:42.631Z,38.40
2023-03-12T22:57:14.173Z,37.80
2023-03-12T22:59:44.838Z,38.20
2023-03-12T23:02:15.550Z,38.00
2023-03-12T23:04:48.951Z,37.30
2023-03-12T23:07:20.146Z,37.60
2023-03-12T23:09:51.248Z,36.80
2023-03-12T23:12:22.008Z,37.10
2023-03-12T23:14:58.436Z,36.70
2023-03-12T23:17:31.380Z,37.10
2023-03-12T23:20:04.915Z,36.80
2023-03-12T23:22:36.734Z,37.10
2023-03-12T23:25:08.408Z,36.90
2023-03-12T23:27:39.144Z,37.10
2023-03-12T23:30:11.766Z,36.70
2023-03-12T23:32:42.516Z,36.90
2023-03-12T23:35:16.599Z,37.10
2023-03-12T23:37:47.634Z,36.70
2023-03-12T23:40:19.429Z,36.70
2023-03-12T23:42:50.131Z,36.80
2023-03-12T23:45:21.006Z,37.40
2023-03-12T23:47:51.861Z,38.20
2023-03-12T23:50:25.388Z,37.50
2023-03-12T23:52:57.254Z,37.70
2023-03-12T23:55:27.937Z,37.70
2023-03-12T23:57:58.622Z,37.90
